Data for 07/08/2010

Time Sea-Level Adjusted Pressure Absolute Pressure Temperature Relative Humidity Dew Point   
(mb) (inHg) (mb) (inHg) (C) (F) (%) (C) (F)
00:05 1025 30.27 854 25.22 13.1 55.5 45 1.5 34.6
00:10 1025 30.27 854 25.22 13.1 55.6 45 1.6 34.9
00:15 1025 30.27 854 25.22 13.3 55.9 45 1.5 34.8
00:20 1025 30.27 854 25.22 13.4 56.1 45 1.9 35.4
00:25 1025 30.27 854 25.22 13.3 55.9 46 2 35.6
00:30 1025 30.27 854 25.22 13.3 55.9 46 1.9 35.5
00:35 1025 30.27 854 25.22 13.3 56 47 2.2 36
00:40 1025 30.27 854 25.22 13.2 55.8 47 2.4 36.3
00:45 1025 30.27 854 25.22 13.4 56.2 47 2.4 36.3
00:50 1025 30.27 854 25.22 13.8 56.9 45 2.2 36
00:55 1025 30.27 854 25.22 14.4 57.9 44 2.3 36.1
01:00 1025 30.27 854 25.22 14.7 58.5 44 2.5 36.6
01:05 1025 30.27 854 25.22 14.7 58.4 45 2.8 37.1
01:10 1025 30.27 854 25.22 14.5 58.2 45 2.7 36.9
01:15 1025 30.27 854 25.22 14.6 58.2 44 2.7 36.8
01:20 1025 30.27 854 25.22 14.5 58.1 45 2.9 37.2
01:25 1025 30.27 854 25.22 14.3 57.7 47 3.1 37.6
01:30 1025 30.27 854 25.22 14.1 57.4 47 3.1 37.6
01:35 1025 30.27 854 25.22 13.9 57.1 48 3.1 37.6
01:40 1025 30.27 854 25.22 13.8 56.8 49 3.3 38
01:45 1025 30.27 854 25.22 13.5 56.3 51 3.5 38.3
01:50 1025 30.27 854 25.22 13 55.5 52 3.6 38.4
01:55 1025 30.27 854 25.22 12.6 54.6 54 3.6 38.4
02:00 1025 30.27 854 25.22 12.3 54.2 55 3.5 38.4
02:05 1025 30.27 854 25.22 12.2 53.9 55 3.6 38.5
02:10 1025 30.27 854 25.22 12 53.5 56 3.6 38.5
02:15 1025 30.27 854 25.22 11.8 53.2 57 3.6 38.5
02:20 1025 30.27 854 25.22 11.6 52.9 58 3.6 38.5
02:25 1025 30.27 854 25.22 11.7 53 58 3.6 38.5
02:30 1025 30.27 854 25.22 11.7 53.1 57 3.6 38.5
02:35 1025 30.27 854 25.22 11.9 53.5 57 3.6 38.6
02:40 1025 30.27 854 25.22 11.9 53.4 57 3.8 38.8
02:45 1025 30.27 854 25.22 11.8 53.2 58 3.8 38.9
02:50 1025 30.27 854 25.22 12 53.6 56 3.5 38.3
02:55 1025 30.27 854 25.22 12.8 55 54 3.7 38.6
03:00 1025 30.27 854 25.22 13 55.3 54 3.8 38.9
03:05 1025 30.27 854 25.22 13 55.4 53 3.7 38.6
03:10 1025 30.27 854 25.22 13.3 55.9 52 3.8 38.8
03:15 1025 30.27 854 25.22 13.5 56.2 51 3.7 38.6
03:20 1025 30.27 854 25.22 13.5 56.4 51 3.7 38.7
03:25 1025 30.27 855 25.25 13.5 56.3 52 3.8 38.8
03:30 1025 30.27 855 25.25 13.5 56.2 52 3.8 38.8
03:35 1025 30.27 855 25.25 13.4 56 53 4.1 39.4
03:40 1025 30.27 855 25.25 12.6 54.6 57 4.5 40
03:45 1025 30.27 855 25.25 11.4 52.5 60 4.1 39.3
03:50 1025 30.27 854 25.22 11.1 51.9 62 4.1 39.3
03:55 1025 30.27 854 25.22 10.9 51.6 62 3.9 39
04:00 1025 30.27 854 25.22 10.6 51 63 3.8 38.9
04:05 1025 30.27 854 25.22 10.4 50.7 64 3.8 38.9
04:10 1025 30.27 855 25.25 10.4 50.6 63 3.7 38.6
04:15 1025 30.27 854 25.22 10.3 50.5 64 3.7 38.7
04:20 1025 30.27 855 25.25 10.2 50.3 64 3.7 38.7
04:25 1025 30.27 855 25.25 10.1 50.1 65 3.8 38.8
04:30 1025 30.27 855 25.25 10.1 50.1 65 3.9 38.9
04:35 1025 30.27 855 25.25 10 50 65 3.9 39
04:40 1026 30.3 855 25.25 9.8 49.7 66 3.7 38.7
04:45 1026 30.3 855 25.25 9.8 49.6 64 3.3 38
04:50 1026 30.3 855 25.25 10 50 64 3.5 38.3
04:55 1026 30.3 855 25.25 10.3 50.5 63 3.6 38.4
05:00 1026 30.3 855 25.25 10.3 50.6 63 3.6 38.5
05:05 1026 30.3 855 25.25 10.4 50.7 63 3.7 38.6
05:10 1026 30.3 855 25.25 10.3 50.6 63 3.5 38.4
05:15 1026 30.3 855 25.25 10.3 50.6 62 3.4 38.1
05:20 1026 30.3 855 25.25 10.3 50.5 61 3.2 37.7
05:25 1026 30.3 855 25.25 10.4 50.6 62 3.5 38.3
05:30 1026 30.3 855 25.25 10.1 50.1 62 3.1 37.6
05:35 1026 30.3 855 25.25 9.7 49.4 62 2.8 37
05:40 1026 30.3 855 25.25 9.4 49 62 2.6 36.6
05:45 1026 30.3 855 25.25 9.5 49.1 61 2.4 36.3
05:50 1026 30.3 855 25.25 9.4 48.8 62 2.4 36.3
05:55 1026 30.3 855 25.25 9.4 49 62 2.5 36.5
06:00 1026 30.3 855 25.25 9 48.2 63 2.3 36.2
06:05 1026 30.3 855 25.25 9.1 48.5 62 2.3 36.1
06:10 1026 30.3 855 25.25 9.4 48.8 61 2.3 36.2
06:15 1026 30.3 855 25.25 9.7 49.4 60 2.4 36.3
06:20 1026 30.3 855 25.25 9.5 49.1 62 2.6 36.7
06:25 1026 30.3 855 25.25 9.4 48.8 61 2.4 36.2
06:30 1026 30.3 855 25.25 9.3 48.7 62 2.5 36.4
06:35 1026 30.3 855 25.25 9.2 48.6 62 2.3 36.2
06:40 1026 30.3 855 25.25 9.5 49 61 2.3 36.1
06:45 1026 30.3 855 25.25 9.7 49.4 60 2.3 36.2
06:50 1026 30.3 855 25.25 9.8 49.6 60 2.4 36.4
06:55 1026 30.3 855 25.25 9.8 49.7 61 2.6 36.7
07:00 1026 30.3 855 25.25 9.9 49.8 61 2.7 36.8
07:05 1026 30.3 855 25.25 10 50 60 2.7 36.8
07:10 1026 30.3 855 25.25 10.1 50.1 61 3 37.4
07:15 1026 30.3 855 25.25 10.2 50.4 61 3.2 37.7
07:20 1026 30.3 855 25.25 10.6 51 60 3.2 37.8
07:25 1026 30.3 855 25.25 11.1 51.9 60 3.5 38.3
07:30 1026 30.3 855 25.25 11.4 52.4 60 3.8 38.9
07:35 1026 30.3 855 25.25 11.7 53 58 3.8 38.9
07:40 1026 30.3 855 25.25 12 53.7 56 3.7 38.6
07:45 1026 30.3 855 25.25 12.6 54.7 54 3.5 38.3
07:50 1026 30.3 855 25.25 13 55.4 52 3.4 38.1
07:55 1026 30.3 855 25.25 13.1 55.5 51 3.3 37.9
08:00 1026 30.3 855 25.25 13.4 56 49 2.9 37.3
08:05 1026 30.3 855 25.25 13.6 56.5 47 2.6 36.7
08:10 1026 30.3 855 25.25 14.4 57.8 45 2.7 36.9
08:15 1026 30.3 855 25.25 14.7 58.5 47 3.8 38.8
08:20 1026 30.3 855 25.25 14.3 57.7 47 3.2 37.7
08:25 1026 30.3 855 25.25 15.1 59.2 44 3.2 37.7
08:30 1026 30.3 855 25.25 15.3 59.5 44 3.3 37.9
08:35 1026 30.3 855 25.25 15.1 59.1 44 3 37.3
08:40 1026 30.3 855 25.25 15.1 59.3 44 3.1 37.6
08:45 1026 30.3 855 25.25 15.4 59.8 44 3.3 37.9
08:50 1026 30.3 855 25.25 15.7 60.2 44 3.6 38.4
08:55 1026 30.3 855 25.25 15.9 60.6 43 3.4 38.1
09:00 1026 30.3 855 25.25 15.9 60.6 44 3.8 38.8
09:05 1026 30.3 855 25.25 16.2 61.2 42 3.5 38.4
09:10 1026 30.3 855 25.25 17.2 63 40 3.5 38.2
09:15 1026 30.3 855 25.25 17.7 63.8 41 4.3 39.8
09:20 1026 30.3 855 25.25 17.6 63.7 42 4.7 40.4
09:25 1026 30.3 855 25.25 17.1 62.7 42 4.3 39.8
09:30 1026 30.3 855 25.25 17.5 63.6 41 4.3 39.8
09:35 1026 30.3 855 25.25 17.1 62.8 43 4.5 40.1
09:40 1026 30.3 855 25.25 17.2 62.9 44 4.8 40.7
09:45 1026 30.3 855 25.25 17.6 63.8 43 5.1 41.1
09:50 1026 30.3 855 25.25 18.4 65.1 40 4.6 40.3
09:55 1026 30.3 855 25.25 18.2 64.7 42 5 41.1
10:00 1026 30.3 855 25.25 18.4 65.1 40 4.6 40.3
10:05 1026 30.3 855 25.25 18.8 65.8 42 5.9 42.6
10:10 1026 30.3 855 25.25 18.8 65.9 40 5.2 41.3
10:15 1026 30.3 855 25.25 18.9 66.1 43 6.3 43.4
10:20 1026 30.3 855 25.25 18.6 65.5 42 5.7 42.3
10:25 1026 30.3 855 25.25 19.3 66.7 41 6 42.7
10:30 1026 30.3 855 25.25 19.3 66.8 41 5.8 42.4
10:35 1026 30.3 855 25.25 18.8 65.8 45 6.7 44
10:40 1026 30.3 855 25.25 18.8 65.8 42 5.7 42.3
10:45 1026 30.3 855 25.25 19.5 67.1 40 5.8 42.5
10:50 1026 30.3 855 25.25 18.9 66 43 6.3 43.3
10:55 1026 30.3 855 25.25 18.5 65.3 42 5.4 41.7
11:00 1026 30.3 855 25.25 19.7 67.4 40 5.7 42.3
11:05 1026 30.3 855 25.25 20 68 38 5.4 41.8
11:10 1025 30.27 855 25.25 20.4 68.7 38 5.8 42.5
11:15 1025 30.27 855 25.25 20.5 68.8 37 5.6 42
11:20 1025 30.27 855 25.25 19.9 67.7 38 5.4 41.8
11:25 1025 30.27 855 25.25 20.7 69.3 38 5.9 42.7
11:30 1025 30.27 855 25.25 20.2 68.4 39 6.1 43
11:35 1025 30.27 855 25.25 20.4 68.8 40 6.4 43.5
11:40 1025 30.27 855 25.25 21 69.7 36 5.6 42
11:45 1025 30.27 854 25.22 21.5 70.7 36 5.9 42.7
11:50 1025 30.27 854 25.22 21.6 70.8 36 6 42.8
11:55 1025 30.27 854 25.22 21.4 70.5 37 6.4 43.4
12:00 1025 30.27 854 25.22 20.1 68.1 39 5.7 42.2
12:05 1025 30.27 854 25.22 20.7 69.3 36 5.4 41.6
12:10 1025 30.27 854 25.22 21.4 70.5 36 6 42.7
12:15 1025 30.27 854 25.22 21.4 70.6 35 5.5 42
12:20 1025 30.27 854 25.22 21.9 71.4 33 5.2 41.3
12:25 1025 30.27 854 25.22 22.2 71.9 32 4.8 40.7
12:30 1025 30.27 854 25.22 22.1 71.8 32 5 41.1
12:35 1025 30.27 854 25.22 21.9 71.4 32 4.7 40.5
12:40 1025 30.27 854 25.22 22.5 72.5 31 4.8 40.6
12:45 1025 30.27 854 25.22 22.2 71.9 31 4.6 40.3
12:50 1025 30.27 854 25.22 22.3 72.2 29 3.6 38.5
12:55 1025 30.27 854 25.22 22.7 72.9 30 4.5 40.1
13:00 1025 30.27 854 25.22 23.1 73.5 28 4 39.1
13:05 1025 30.27 854 25.22 23.4 74.2 27 3.8 38.9
13:10 1025 30.27 854 25.22 23.2 73.8 28 4 39.3
13:15 1025 30.27 854 25.22 22.4 72.3 29 3.7 38.6
13:20 1025 30.27 854 25.22 23.7 74.6 27 3.9 39.1
13:25 1025 30.27 854 25.22 23 73.3 29 4.3 39.8
13:30 1025 30.27 854 25.22 23.2 73.7 28 3.7 38.7
13:35 1025 30.27 854 25.22 24.2 75.5 28 4.5 40.1
13:40 1025 30.27 854 25.22 24.5 76.2 26 4.1 39.4
13:45 1025 30.27 854 25.22 24.4 75.9 28 4.8 40.6
13:50 1025 30.27 854 25.22 24.1 75.3 28 4.5 40
13:55 1025 30.27 854 25.22 24.5 76.2 27 4.3 39.8
14:00 1025 30.27 854 25.22 24.6 76.3 28 5.2 41.3
14:05 1024 30.24 854 25.22 23.3 73.9 28 4 39.2
14:10 1024 30.24 854 25.22 23 73.4 29 4.3 39.8
14:15 1024 30.24 854 25.22 23.8 74.8 28 4.4 39.9
14:20 1024 30.24 854 25.22 23.9 75 27 4.2 39.6
14:25 1024 30.24 853 25.19 23.4 74 27 3.5 38.3
14:30 1024 30.24 853 25.19 24.8 76.6 24 3.3 37.9
14:35 1024 30.24 853 25.19 23.7 74.7 26 3.5 38.4
14:40 1024 30.24 853 25.19 24.1 75.4 25 2.8 37.1
14:45 1024 30.24 853 25.19 24.8 76.6 23 2.5 36.4
14:50 1024 30.24 853 25.19 25 76.9 23 2.4 36.3
14:55 1024 30.24 853 25.19 24.4 76 25 3.4 38.1
15:00 1024 30.24 853 25.19 25.2 77.4 22 2.4 36.3
15:05 1024 30.24 853 25.19 24.8 76.6 20 0.4 32.8
15:10 1024 30.24 853 25.19 25.1 77.2 20 0.5 32.8
15:15 1024 30.24 853 25.19 25.5 77.9 20 1.2 34.1
15:20 1024 30.24 853 25.19 25.8 78.4 21 2.4 36.3
15:25 1024 30.24 853 25.19 26.1 79 20 1.8 35.2
15:30 1024 30.24 853 25.19 25.4 77.6 20 1.1 34
15:35 1024 30.24 853 25.19 25.4 77.6 19 0.5 32.8
15:40 1024 30.24 853 25.19 25.8 78.5 20 1.7 35.1
15:45 1024 30.24 853 25.19 26.2 79.2 20 1.5 34.7
15:50 1024 30.24 853 25.19 26.1 78.9 20 1.8 35.3
15:55 1024 30.24 853 25.19 25.8 78.4 20 1.6 34.9
16:00 1024 30.24 853 25.19 25.7 78.2 21 1.7 35
16:05 1024 30.24 853 25.19 24.6 76.3 22 1.5 34.8
16:10 1024 30.24 853 25.19 25.7 78.2 22 2.7 36.8
16:15 1023 30.21 853 25.19 25.6 78.1 21 2.1 35.8
16:20 1023 30.21 853 25.19 25.4 77.7 22 2.2 36
16:25 1023 30.21 853 25.19 24.9 76.8 21 1.4 34.5
16:30 1023 30.21 853 25.19 25.6 78.1 21 2.1 35.7
16:35 1023 30.21 853 25.19 26.2 79.1 22 3.1 37.5
16:40 1023 30.21 853 25.19 26.4 79.5 21 2.6 36.7
16:45 1023 30.21 853 25.19 25.6 78.1 21 2.3 36.1
16:50 1023 30.21 852 25.16 25.3 77.5 21 1.7 35.1
16:55 1023 30.21 852 25.16 26 78.8 21 2.2 36
17:00 1023 30.21 852 25.16 26.1 79 21 2.5 36.5
17:05 1023 30.21 852 25.16 25.2 77.3 22 1.9 35.5
17:10 1023 30.21 852 25.16 24.7 76.5 23 2.2 35.9
17:15 1023 30.21 852 25.16 25.3 77.5 22 2.4 36.3
17:20 1023 30.21 852 25.16 26.2 79.1 20 1.7 35.1
17:25 1023 30.21 852 25.16 26.8 80.2 21 2.8 37
17:30 1023 30.21 852 25.16 26.8 80.3 22 3.4 38.1
17:35 1023 30.21 852 25.16 26.4 79.5 22 3 37.4
17:40 1023 30.21 852 25.16 26.5 79.6 21 2.9 37.2
17:45 1023 30.21 852 25.16 26.7 80.1 20 2.2 36
17:50 1023 30.21 852 25.16 26.7 80 20 2.5 36.4
17:55 1023 30.21 852 25.16 26.9 80.5 20 2.5 36.5
18:00 1023 30.21 852 25.16 26.9 80.4 17 0.1 32.3
18:05 1023 30.21 852 25.16 26.6 79.8 17 -0.1 31.7
18:10 1023 30.21 852 25.16 26.1 78.9 20 1.5 34.7
18:15 1023 30.21 852 25.16 26 78.8 20 1.6 34.9
18:20 1023 30.21 852 25.16 26.1 79.1 19 0.8 33.4
18:25 1023 30.21 852 25.16 26.2 79.1 20 1.8 35.2
18:30 1023 30.21 852 25.16 26.2 79.1 20 1.4 34.6
18:35 1023 30.21 852 25.16 26.3 79.3 20 2 35.5
18:40 1023 30.21 852 25.16 26.4 79.5 19 1.5 34.6
18:45 1023 30.21 852 25.16 26.3 79.3 19 1.4 34.5
18:50 1023 30.21 852 25.16 26.4 79.5 19 1.4 34.5
18:55 1023 30.21 852 25.16 26.3 79.4 19 1.3 34.4
19:00 1023 30.21 852 25.16 25.9 78.5 20 1.6 34.8
19:05 1023 30.21 852 25.16 25.6 78 20 1.5 34.7
19:10 1023 30.21 852 25.16 25.7 78.3 22 2.5 36.4
19:15 1023 30.21 852 25.16 25.8 78.4 21 2.2 36
19:20 1023 30.21 852 25.16 25.4 77.7 22 2.4 36.3
19:25 1023 30.21 852 25.16 25.2 77.3 21 1.7 35
19:30 1023 30.21 852 25.16 24.8 76.6 21 1.3 34.4
19:35 1023 30.21 852 25.16 24.2 75.6 22 1.5 34.7
19:40 1023 30.21 852 25.16 24.3 75.7 22 1.7 35
19:45 1023 30.21 852 25.16 24.1 75.4 25 2.8 37.1
19:50 1023 30.21 852 25.16 23.8 74.8 22 1.3 34.3
19:55 1023 30.21 852 25.16 23.6 74.5 25 2.6 36.7
20:00 1023 30.21 852 25.16 23.4 74.1 26 2.8 37
20:05 1023 30.21 852 25.16 23.3 74 25 2.6 36.7
20:10 1023 30.21 852 25.16 23.2 73.8 27 3.6 38.5
20:15 1023 30.21 852 25.16 23.1 73.7 27 3.3 37.9
20:20 1023 30.21 852 25.16 22.9 73.2 30 4.6 40.3
20:25 1023 30.21 852 25.16 22.8 73 28 3.6 38.6
20:30 1023 30.21 852 25.16 22.7 72.9 27 3.1 37.5
20:35 1023 30.21 852 25.16 22.7 72.9 27 2.8 37
20:40 1023 30.21 852 25.16 22.7 72.8 28 3.2 37.7
20:45 1023 30.21 852 25.16 22.6 72.6 32 5.4 41.8
20:50 1023 30.21 852 25.16 22.4 72.2 33 5.3 41.6
20:55 1023 30.21 852 25.16 22.2 71.9 33 5.4 41.7
21:00 1023 30.21 852 25.16 21.9 71.4 36 6.5 43.7
21:05 1023 30.21 852 25.16 21.6 71 37 6.5 43.7
21:10 1023 30.21 852 25.16 21.4 70.4 38 6.7 44.1
21:15 1023 30.21 852 25.16 20.9 69.7 43 8.2 46.7
21:20 1023 30.21 852 25.16 20.4 68.7 47 8.7 47.7
21:25 1023 30.21 852 25.16 20 68 48 8.9 48
21:30 1023 30.21 852 25.16 19.4 67 50 8.8 47.8
21:35 1023 30.21 852 25.16 18.9 66.1 53 9.2 48.6
21:40 1023 30.21 852 25.16 18.4 65.1 51 8.3 47
21:45 1023 30.21 852 25.16 18 64.3 56 9.1 48.4
21:50 1023 30.21 852 25.16 17.9 64.3 49 7.1 44.8
21:55 1023 30.21 852 25.16 17.9 64.2 50 7.4 45.3
22:00 1023 30.21 852 25.16 17.4 63.3 50 6.9 44.4
22:05 1023 30.21 852 25.16 17 62.5 52 7.2 44.9
22:10 1023 30.21 852 25.16 16.7 62 54 7.4 45.3
22:15 1023 30.21 852 25.16 16.4 61.5 53 6.8 44.2
22:20 1023 30.21 852 25.16 16.3 61.3 53 6.8 44.2
22:25 1023 30.21 852 25.16 16.2 61.2 54 6.9 44.4
22:30 1023 30.21 852 25.16 16 60.8 55 7 44.6
22:35 1023 30.21 852 25.16 15.9 60.5 55 7 44.5
22:40 1023 30.21 852 25.16 15.9 60.6 55 6.9 44.4
22:45 1023 30.21 852 25.16 16.1 61 51 6.2 43.2
22:50 1023 30.21 852 25.16 16.5 61.7 52 6.6 43.9
22:55 1023 30.21 852 25.16 16.6 61.8 50 6.1 43
23:00 1023 30.21 852 25.16 17.2 63 48 6.1 43
23:05 1023 30.21 852 25.16 17.4 63.4 47 6 42.9
23:10 1023 30.21 852 25.16 17.9 64.2 45 5.8 42.5
23:15 1023 30.21 852 25.16 18.2 64.8 44 5.9 42.7
23:20 1023 30.21 852 25.16 18.5 65.3 43 5.8 42.4
23:25 1023 30.21 852 25.16 18.6 65.6 42 5.5 42
23:30 1023 30.21 852 25.16 18.9 66 41 5.6 42.1
23:35 1023 30.21 852 25.16 18.9 66 42 5.7 42.2
23:40 1023 30.21 852 25.16 19 66.1 40 5.3 41.6
23:45 1023 30.21 852 25.16 19 66.2 40 5.2 41.4
23:50 1023 30.21 852 25.16 18.9 66.1 40 5.3 41.5
23:55 1023 30.21 852 25.16 18.8 65.9 40 5.2 41.4
24:00 1023 30.21 852 25.16 18.8 65.8 40 5.1 41.2